Freshford, Canada
Current Conditions -  °F | °C
As of 12:00 AM on Monday 22 Dec 2014 (Local Time) from CYQD Reporting Station
Overcast Overcast  
Wind Chill: 19°   Ceiling: 500
Heat Index: 25°   Visibility: 8mi
Dew Point: 23°   Wind: 5mph
Humidity: 93%   Direction: 50°NE
Pressure: 29.64"   Gusts: NA
Location:  52.68°N, 101.23°W
Report Text: CYQD 220600Z 05004KT 030V090 8SM OVC005 M04/M05 A2964 RMK ST8 SLP053
Loading
Personal Weather Stations






























Interactive Weather Map New forecast layout! Learn more

10-Day Weather Forecast

Advertisements
Track Severe Weather on mobile